createdAt,value
2018-01-06T00:00:55.457Z,0.00
2018-01-06T00:01:55.377Z,0.00
2018-01-06T00:02:55.295Z,0.00
2018-01-06T00:03:55.216Z,0.00
2018-01-06T00:04:55.134Z,0.00
2018-01-06T00:05:55.057Z,0.00
2018-01-06T00:06:54.974Z,0.00
2018-01-06T00:07:54.947Z,0.00
2018-01-06T00:08:54.812Z,0.00
2018-01-06T00:09:54.733Z,0.00
2018-01-06T00:10:54.651Z,0.00
2018-01-06T00:11:54.573Z,0.00
2018-01-06T00:12:54.488Z,0.00
2018-01-06T00:13:54.409Z,0.00
2018-01-06T00:14:54.327Z,0.00
2018-01-06T00:15:54.250Z,0.00
2018-01-06T00:16:54.170Z,0.00
2018-01-06T00:17:54.085Z,0.00
2018-01-06T00:18:53.993Z,0.00
2018-01-06T00:19:53.926Z,0.00
2018-01-06T00:20:53.845Z,0.00
2018-01-06T00:21:53.766Z,0.00
2018-01-06T00:22:53.671Z,0.00
2018-01-06T00:23:53.603Z,0.00
2018-01-06T00:24:53.524Z,0.00
2018-01-06T00:25:53.444Z,0.00
2018-01-06T00:26:53.360Z,0.00
2018-01-06T00:27:53.269Z,0.00
2018-01-06T00:28:53.198Z,0.00
2018-01-06T00:29:53.120Z,0.00
2018-01-06T00:30:53.038Z,0.00
2018-01-06T00:31:52.958Z,0.00
2018-01-06T00:32:52.865Z,0.00
2018-01-06T00:33:52.797Z,0.00
2018-01-06T00:34:52.717Z,0.00
2018-01-06T00:35:52.637Z,0.00
2018-01-06T00:36:52.556Z,0.00
2018-01-06T00:37:52.477Z,0.00
2018-01-06T00:38:52.383Z,0.00
2018-01-06T00:39:52.304Z,0.00
2018-01-06T00:40:52.222Z,0.00
2018-01-06T00:41:52.155Z,0.00
2018-01-06T00:42:52.061Z,0.00
2018-01-06T00:43:51.995Z,0.00
2018-01-06T00:44:51.899Z,0.00
2018-01-06T00:45:51.834Z,0.00
2018-01-06T00:46:51.751Z,0.00
2018-01-06T00:47:51.658Z,0.00
2018-01-06T00:48:51.589Z,0.00
2018-01-06T00:49:51.495Z,0.00
2018-01-06T00:50:51.415Z,0.00
2018-01-06T00:51:51.336Z,0.00
2018-01-06T00:52:51.256Z,0.00
2018-01-06T00:53:51.176Z,0.00
2018-01-06T00:54:51.093Z,0.00
2018-01-06T00:55:51.015Z,0.00
2018-01-06T00:56:50.933Z,0.00
2018-01-06T00:57:50.863Z,0.00
2018-01-06T00:58:50.772Z,0.00
2018-01-06T00:59:50.693Z,0.00
2018-01-06T01:00:50.621Z,0.00
2018-01-06T01:01:50.530Z,0.00
2018-01-06T01:02:50.449Z,0.00
2018-01-06T01:03:50.369Z,0.00
2018-01-06T01:04:50.290Z,0.00
2018-01-06T01:05:50.220Z,0.00
2018-01-06T01:06:50.127Z,0.00
2018-01-06T01:07:50.048Z,0.00
2018-01-06T01:08:49.968Z,0.00
2018-01-06T01:09:49.888Z,0.00
2018-01-06T01:10:49.806Z,0.00
2018-01-06T01:11:49.731Z,0.00
2018-01-06T01:12:49.643Z,0.00
2018-01-06T01:13:49.563Z,0.00
2018-01-06T01:14:49.482Z,0.00
2018-01-06T01:15:49.402Z,0.00
2018-01-06T01:16:49.321Z,0.00
2018-01-06T01:17:49.241Z,0.00
2018-01-06T01:18:49.159Z,0.00
2018-01-06T01:19:49.080Z,0.00
2018-01-06T01:20:48.996Z,0.00
2018-01-06T01:21:48.918Z,0.00
2018-01-06T01:22:48.835Z,0.00
2018-01-06T01:23:48.755Z,0.00
2018-01-06T01:24:48.674Z,0.00
2018-01-06T01:25:48.595Z,0.00
2018-01-06T01:26:48.513Z,0.00
2018-01-06T01:27:48.433Z,0.00
2018-01-06T01:28:48.356Z,0.00
2018-01-06T01:29:48.273Z,0.00
2018-01-06T01:30:48.197Z,0.00
2018-01-06T01:31:48.113Z,0.00
2018-01-06T01:32:48.039Z,0.00
2018-01-06T01:33:47.952Z,0.00
2018-01-06T01:34:47.872Z,0.00
2018-01-06T01:35:47.789Z,0.00
2018-01-06T01:36:47.710Z,0.00
2018-01-06T01:37:47.627Z,0.00
2018-01-06T01:38:47.548Z,0.00
2018-01-06T01:39:47.467Z,0.00
2018-01-06T01:40:47.436Z,0.00
2018-01-06T01:41:47.305Z,0.00
2018-01-06T01:42:47.227Z,0.00
2018-01-06T01:43:47.145Z,0.00
2018-01-06T01:44:47.065Z,0.00
2018-01-06T01:45:46.983Z,0.00
2018-01-06T01:46:46.905Z,0.00
2018-01-06T01:47:46.826Z,0.00
2018-01-06T01:48:46.742Z,0.00
2018-01-06T01:49:46.662Z,0.00
2018-01-06T01:50:46.581Z,0.00
2018-01-06T01:51:46.502Z,0.00
2018-01-06T01:52:46.417Z,0.00
2018-01-06T01:53:46.341Z,0.00
2018-01-06T01:54:46.259Z,0.00
2018-01-06T01:55:46.181Z,0.00
2018-01-06T01:56:46.101Z,0.00
2018-01-06T01:57:46.017Z,0.00
2018-01-06T01:58:45.936Z,0.00
2018-01-06T01:59:45.859Z,0.00
2018-01-06T02:00:45.774Z,0.00
2018-01-06T02:01:45.699Z,0.00
2018-01-06T02:02:45.620Z,0.00
2018-01-06T02:03:45.534Z,0.00
2018-01-06T02:04:45.454Z,0.00
2018-01-06T02:05:45.375Z,0.00
2018-01-06T02:06:45.291Z,0.00
2018-01-06T02:07:45.212Z,0.00
2018-01-06T02:08:45.131Z,0.00
2018-01-06T02:09:45.051Z,0.00
2018-01-06T02:10:44.970Z,0.00
2018-01-06T02:11:44.888Z,0.00
2018-01-06T02:12:44.808Z,0.00
2018-01-06T02:13:44.726Z,0.00
2018-01-06T02:14:44.646Z,0.00
2018-01-06T02:15:44.566Z,0.00
2018-01-06T02:16:44.485Z,0.00
2018-01-06T02:17:44.408Z,0.00
2018-01-06T02:18:44.326Z,0.00
2018-01-06T02:19:44.243Z,0.00
2018-01-06T02:20:44.162Z,0.00
2018-01-06T02:21:44.084Z,0.00
2018-01-06T02:22:44.001Z,0.00
2018-01-06T02:23:43.922Z,0.00
2018-01-06T02:24:43.840Z,0.00
2018-01-06T02:25:43.763Z,0.00
2018-01-06T02:26:43.681Z,0.00
2018-01-06T02:27:43.599Z,0.00
2018-01-06T02:28:43.518Z,0.00
2018-01-06T02:29:43.438Z,0.00
2018-01-06T02:30:43.358Z,0.00
2018-01-06T02:31:43.279Z,0.00
2018-01-06T02:32:43.202Z,0.00
2018-01-06T02:33:43.115Z,0.00
2018-01-06T02:34:43.035Z,0.00
2018-01-06T02:35:42.953Z,0.00
2018-01-06T02:36:42.874Z,0.00
2018-01-06T02:37:42.792Z,0.00
2018-01-06T02:38:42.712Z,0.00
2018-01-06T02:39:42.632Z,0.00
2018-01-06T02:40:42.550Z,0.00
2018-01-06T02:41:42.470Z,0.00
2018-01-06T02:42:42.391Z,0.00
2018-01-06T02:43:42.308Z,0.00
2018-01-06T02:44:42.228Z,0.00
2018-01-06T02:45:42.146Z,0.00
2018-01-06T02:46:42.072Z,0.00
2018-01-06T02:47:41.986Z,0.00
2018-01-06T02:48:41.903Z,0.00
2018-01-06T02:49:41.825Z,0.00
2018-01-06T02:50:41.744Z,0.00
2018-01-06T02:51:41.665Z,0.00
2018-01-06T02:52:41.581Z,0.00
2018-01-06T02:53:41.501Z,0.00
2018-01-06T02:54:41.420Z,0.00
2018-01-06T02:55:41.341Z,0.00
2018-01-06T02:56:41.258Z,0.00
2018-01-06T02:57:41.176Z,0.00
2018-01-06T02:58:41.097Z,0.00
2018-01-06T02:59:41.017Z,0.00
2018-01-06T03:00:40.934Z,0.00
2018-01-06T03:01:40.855Z,0.00
2018-01-06T03:02:40.773Z,0.00
2018-01-06T03:03:40.694Z,0.00
2018-01-06T03:04:40.611Z,0.00
2018-01-06T03:05:40.534Z,0.00
2018-01-06T03:06:40.452Z,0.00
2018-01-06T03:07:40.369Z,0.00
2018-01-06T03:08:40.291Z,0.00
2018-01-06T03:09:40.209Z,0.00
2018-01-06T03:10:40.128Z,0.00
2018-01-06T03:11:40.049Z,0.00
2018-01-06T03:12:39.964Z,0.00
2018-01-06T03:13:39.888Z,0.00
2018-01-06T03:14:39.804Z,0.00
2018-01-06T03:15:39.725Z,0.00
2018-01-06T03:16:39.643Z,0.00
2018-01-06T03:17:39.563Z,0.00
2018-01-06T03:18:39.482Z,0.00
2018-01-06T03:19:39.403Z,0.00
2018-01-06T03:20:39.320Z,0.00
2018-01-06T03:21:39.239Z,0.00
2018-01-06T03:22:39.162Z,0.00
2018-01-06T03:23:39.077Z,0.00
2018-01-06T03:24:38.997Z,0.00
2018-01-06T03:25:38.917Z,0.00
2018-01-06T03:26:38.836Z,0.00
2018-01-06T03:27:38.756Z,0.00
2018-01-06T03:28:38.674Z,0.00
2018-01-06T03:29:38.595Z,0.00
2018-01-06T03:30:38.512Z,0.00
2018-01-06T03:31:38.434Z,0.00
2018-01-06T03:32:38.360Z,0.00
2018-01-06T03:33:38.269Z,0.00
2018-01-06T03:34:38.188Z,0.00
2018-01-06T03:35:38.111Z,0.00
2018-01-06T03:36:38.030Z,0.00
2018-01-06T03:37:37.946Z,0.00
2018-01-06T03:38:37.868Z,0.00
2018-01-06T03:39:37.785Z,0.00
2018-01-06T03:40:37.704Z,0.00
2018-01-06T03:41:37.622Z,0.00
2018-01-06T03:42:37.550Z,0.00
2018-01-06T03:43:37.463Z,0.00
2018-01-06T03:44:37.381Z,0.00
2018-01-06T03:45:37.301Z,0.00
2018-01-06T03:46:37.218Z,0.00
2018-01-06T03:47:37.139Z,0.00
2018-01-06T03:48:37.058Z,0.00
2018-01-06T03:49:36.980Z,0.00
2018-01-06T03:50:36.896Z,0.00
2018-01-06T03:51:36.820Z,0.00
2018-01-06T03:52:36.736Z,0.00
2018-01-06T03:53:36.655Z,0.00
2018-01-06T03:54:36.573Z,0.00
2018-01-06T03:55:36.492Z,0.00
2018-01-06T03:56:36.412Z,0.00
2018-01-06T03:57:36.330Z,0.00
2018-01-06T03:58:36.250Z,0.00
2018-01-06T03:59:36.180Z,0.00
2018-01-06T04:00:36.086Z,0.00
2018-01-06T04:01:36.008Z,0.00
2018-01-06T04:02:35.927Z,0.00
2018-01-06T04:03:35.857Z,0.00
2018-01-06T04:04:35.764Z,0.00
2018-01-06T04:05:35.682Z,0.00
2018-01-06T04:06:35.602Z,0.00
2018-01-06T04:07:35.521Z,0.00
2018-01-06T04:08:35.447Z,0.00
2018-01-06T04:09:35.358Z,0.00
2018-01-06T04:10:35.279Z,0.00
2018-01-06T04:11:35.198Z,0.00
2018-01-06T04:12:35.117Z,0.00
2018-01-06T04:13:35.036Z,0.00
2018-01-06T04:14:34.962Z,0.00
2018-01-06T04:15:34.874Z,0.00
2018-01-06T04:16:34.792Z,0.00
2018-01-06T04:17:34.714Z,0.00
2018-01-06T04:18:34.643Z,0.00
2018-01-06T04:19:34.556Z,0.00
2018-01-06T04:20:34.474Z,0.00
2018-01-06T04:21:34.391Z,0.00
2018-01-06T04:22:34.311Z,0.00
2018-01-06T04:23:34.228Z,0.00
2018-01-06T04:24:34.149Z,0.00
2018-01-06T04:25:34.065Z,0.00
2018-01-06T04:26:33.988Z,0.00
2018-01-06T04:27:33.904Z,0.00
2018-01-06T04:28:33.826Z,0.00
2018-01-06T04:29:33.742Z,0.00
2018-01-06T04:30:33.664Z,0.00
2018-01-06T04:31:33.583Z,0.00
2018-01-06T04:32:33.507Z,0.00
2018-01-06T04:33:33.421Z,0.00
2018-01-06T04:34:33.339Z,0.00
2018-01-06T04:35:33.273Z,0.00
2018-01-06T04:36:33.176Z,0.00
2018-01-06T04:37:33.098Z,0.00
2018-01-06T04:38:33.015Z,0.00
2018-01-06T04:39:32.937Z,0.00
2018-01-06T04:40:32.851Z,0.00
2018-01-06T04:41:32.770Z,0.00
2018-01-06T04:42:32.691Z,0.00
2018-01-06T04:43:32.612Z,0.00
2018-01-06T04:44:32.528Z,0.00
2018-01-06T04:45:32.450Z,0.00
2018-01-06T04:46:32.369Z,0.00
2018-01-06T04:47:32.286Z,0.00
2018-01-06T04:48:32.207Z,0.00
2018-01-06T04:49:32.126Z,0.00
2018-01-06T04:50:32.042Z,0.00
2018-01-06T04:51:31.963Z,0.00
2018-01-06T04:52:31.885Z,0.00
2018-01-06T04:53:31.801Z,0.00
2018-01-06T04:54:31.721Z,0.00
2018-01-06T04:55:31.639Z,0.00
2018-01-06T04:56:31.560Z,0.00
2018-01-06T04:57:31.480Z,0.00
2018-01-06T04:58:31.400Z,0.00
2018-01-06T04:59:31.316Z,0.00
2018-01-06T05:00:31.234Z,0.00
2018-01-06T05:01:31.160Z,0.00
2018-01-06T05:02:31.074Z,0.00
2018-01-06T05:03:30.992Z,0.00
2018-01-06T05:04:30.911Z,0.00
2018-01-06T05:05:30.830Z,0.00
2018-01-06T05:06:30.771Z,0.00
2018-01-06T05:07:30.669Z,0.00
2018-01-06T05:08:30.588Z,0.00
2018-01-06T05:09:30.505Z,0.00
2018-01-06T05:10:30.426Z,0.00
2018-01-06T05:11:30.345Z,0.00
2018-01-06T05:12:30.265Z,0.00
2018-01-06T05:13:30.183Z,0.00
2018-01-06T05:14:30.102Z,0.00
2018-01-06T05:15:30.023Z,0.00
2018-01-06T05:16:29.940Z,0.00
2018-01-06T05:17:29.875Z,0.00
2018-01-06T05:18:29.780Z,0.00
2018-01-06T05:19:29.697Z,0.00
2018-01-06T05:20:29.616Z,0.00
2018-01-06T05:21:29.542Z,0.00
2018-01-06T05:22:29.456Z,0.00
2018-01-06T05:23:29.378Z,0.00
2018-01-06T05:24:29.294Z,0.00
2018-01-06T05:25:29.216Z,0.00
2018-01-06T05:26:29.134Z,0.00
2018-01-06T05:27:29.053Z,0.00
2018-01-06T05:28:28.970Z,0.00
2018-01-06T05:29:28.889Z,0.00
2018-01-06T05:30:28.809Z,0.00
2018-01-06T05:31:28.728Z,0.00
2018-01-06T05:32:28.649Z,0.00
2018-01-06T05:33:28.566Z,0.00
2018-01-06T05:34:28.484Z,0.00
2018-01-06T05:35:28.406Z,0.00
2018-01-06T05:36:28.324Z,0.00
2018-01-06T05:37:28.246Z,0.00
2018-01-06T05:38:28.167Z,0.00
2018-01-06T05:39:28.082Z,0.00
2018-01-06T05:40:28.005Z,0.00
2018-01-06T05:41:27.919Z,0.00
2018-01-06T05:42:27.842Z,0.00
2018-01-06T05:43:27.760Z,0.00
2018-01-06T05:44:27.678Z,0.00
2018-01-06T05:45:27.598Z,0.00
2018-01-06T05:46:27.567Z,0.00
2018-01-06T05:47:27.436Z,0.00
2018-01-06T05:48:27.353Z,0.00
2018-01-06T05:49:27.274Z,0.00
2018-01-06T05:50:27.199Z,0.00
2018-01-06T05:51:27.112Z,0.00
2018-01-06T05:52:27.034Z,0.00
2018-01-06T05:53:26.952Z,0.00
2018-01-06T05:54:26.874Z,0.00
2018-01-06T05:55:26.792Z,0.00
2018-01-06T05:56:26.705Z,0.00
2018-01-06T05:57:26.628Z,0.00
2018-01-06T05:58:26.547Z,0.00
2018-01-06T05:59:26.469Z,0.00
2018-01-06T06:00:26.385Z,0.00
2018-01-06T06:01:26.305Z,0.00
2018-01-06T06:02:26.224Z,0.00
2018-01-06T06:03:26.142Z,0.00
2018-01-06T06:04:26.060Z,0.00
2018-01-06T06:05:25.980Z,0.00
2018-01-06T06:06:25.901Z,0.00
2018-01-06T06:07:25.819Z,0.00
2018-01-06T06:08:25.735Z,0.00
2018-01-06T06:09:25.657Z,0.00
2018-01-06T06:10:25.575Z,0.00
2018-01-06T06:11:25.497Z,0.00
2018-01-06T06:12:25.414Z,0.00
2018-01-06T06:13:25.332Z,0.00
2018-01-06T06:14:25.251Z,0.00
2018-01-06T06:15:25.176Z,0.00
2018-01-06T06:16:25.088Z,0.00
2018-01-06T06:17:25.056Z,0.00
2018-01-06T06:18:24.929Z,0.00
2018-01-06T06:19:24.848Z,0.00
2018-01-06T06:20:24.767Z,0.00
2018-01-06T06:21:24.687Z,0.00
2018-01-06T06:22:24.638Z,0.00
2018-01-06T06:23:24.524Z,0.00
2018-01-06T06:24:24.444Z,0.00
2018-01-06T06:25:24.363Z,0.00
2018-01-06T06:26:24.281Z,0.00
2018-01-06T06:27:24.206Z,0.00
2018-01-06T06:28:24.134Z,0.00
2018-01-06T06:29:24.040Z,0.00
2018-01-06T06:30:23.961Z,0.00
2018-01-06T06:31:23.881Z,0.00
2018-01-06T06:32:23.797Z,0.00
2018-01-06T06:33:23.714Z,0.00
2018-01-06T06:34:23.636Z,0.00
2018-01-06T06:35:23.558Z,0.00
2018-01-06T06:36:23.473Z,0.00
2018-01-06T06:37:23.393Z,0.00
2018-01-06T06:38:23.321Z,0.00
2018-01-06T06:39:23.250Z,0.00
2018-01-06T06:40:23.151Z,0.00
2018-01-06T06:41:23.070Z,0.00
2018-01-06T06:42:22.990Z,0.00
2018-01-06T06:43:22.908Z,0.00
2018-01-06T06:44:22.828Z,0.00
2018-01-06T06:45:22.760Z,0.00
2018-01-06T06:46:22.670Z,0.00
2018-01-06T06:47:22.587Z,0.00
2018-01-06T06:48:22.501Z,0.00
2018-01-06T06:49:22.423Z,0.00
2018-01-06T06:50:22.353Z,0.00
2018-01-06T06:51:22.262Z,0.00
2018-01-06T06:52:22.179Z,0.00
2018-01-06T06:53:22.098Z,0.00
2018-01-06T06:54:22.020Z,0.00
2018-01-06T06:55:21.947Z,0.00
2018-01-06T06:56:21.866Z,0.00
2018-01-06T06:57:21.776Z,0.00
2018-01-06T06:58:21.695Z,0.00
2018-01-06T06:59:21.614Z,0.00
2018-01-06T07:00:21.533Z,0.00
2018-01-06T07:01:21.451Z,0.00
2018-01-06T07:03:54.391Z,0.00
2018-01-06T07:04:54.264Z,0.00
2018-01-06T07:05:54.180Z,0.00
2018-01-06T07:06:54.184Z,0.00
2018-01-06T07:07:54.020Z,0.00
2018-01-06T07:08:53.938Z,0.00
2018-01-06T07:09:53.873Z,0.00
2018-01-06T07:10:53.800Z,0.00
2018-01-06T07:11:53.697Z,0.00
2018-01-06T07:12:53.616Z,0.00
2018-01-06T07:13:53.534Z,5.63
2018-01-06T07:14:53.455Z,5.63
2018-01-06T07:15:53.375Z,5.63
2018-01-06T07:16:53.293Z,5.63
2018-01-06T07:17:53.212Z,5.63
2018-01-06T07:18:53.132Z,5.63
2018-01-06T07:19:53.052Z,5.63
2018-01-06T07:20:52.971Z,5.63
2018-01-06T07:21:52.890Z,5.63
2018-01-06T07:22:52.808Z,5.63
2018-01-06T07:23:52.728Z,5.63
2018-01-06T07:24:52.656Z,5.63
2018-01-06T07:25:52.567Z,5.63
2018-01-06T07:26:52.484Z,5.63
2018-01-06T07:27:52.405Z,5.63
2018-01-06T07:28:52.336Z,5.63
2018-01-06T07:29:52.267Z,5.63
2018-01-06T07:30:52.164Z,11.25
2018-01-06T07:31:52.083Z,11.25
2018-01-06T07:32:52.002Z,16.88
2018-01-06T07:33:51.924Z,16.88
2018-01-06T07:34:51.840Z,16.88
2018-01-06T07:35:51.836Z,16.88
2018-01-06T07:36:51.677Z,16.88
2018-01-06T07:37:51.597Z,22.50
2018-01-06T07:38:51.516Z,22.50
2018-01-06T07:39:51.436Z,16.88
2018-01-06T07:40:51.356Z,16.88
2018-01-06T07:41:51.274Z,16.88
2018-01-06T07:42:51.195Z,16.88
2018-01-06T07:43:51.135Z,16.88
2018-01-06T07:44:51.038Z,16.88
2018-01-06T07:45:50.952Z,22.50
2018-01-06T07:46:50.871Z,22.50
2018-01-06T07:47:50.791Z,22.50
2018-01-06T07:48:50.714Z,22.50
2018-01-06T07:49:50.627Z,22.50
2018-01-06T07:50:50.548Z,28.13
2018-01-06T07:51:50.480Z,28.13
2018-01-06T07:52:50.388Z,28.13
2018-01-06T07:53:50.306Z,28.13
2018-01-06T07:54:50.227Z,28.13
2018-01-06T07:55:50.146Z,33.75
2018-01-06T07:56:50.065Z,28.13
2018-01-06T07:57:49.986Z,28.13
2018-01-06T07:58:49.915Z,28.13
2018-01-06T07:59:49.823Z,33.75
2018-01-06T08:00:49.744Z,28.13
2018-01-06T08:01:49.662Z,28.13
2018-01-06T08:02:49.583Z,33.75
2018-01-06T08:03:49.504Z,33.75
2018-01-06T08:04:49.422Z,33.75
2018-01-06T08:05:49.341Z,33.75
2018-01-06T08:06:49.259Z,33.75
2018-01-06T08:07:49.181Z,33.75
2018-01-06T08:08:49.124Z,33.75
2018-01-06T08:09:49.017Z,39.38
2018-01-06T08:10:48.937Z,39.38
2018-01-06T08:11:48.858Z,39.38
2018-01-06T08:12:48.779Z,39.38
2018-01-06T08:13:48.696Z,45.00
2018-01-06T08:14:48.617Z,50.63
2018-01-06T08:15:48.538Z,50.63
2018-01-06T08:16:48.454Z,56.25
2018-01-06T08:17:48.376Z,56.25
2018-01-06T08:18:48.294Z,67.50
2018-01-06T08:19:48.214Z,78.75
2018-01-06T08:20:48.197Z,78.75
2018-01-06T08:21:48.051Z,101.25
2018-01-06T08:22:47.972Z,112.50
2018-01-06T08:23:47.891Z,101.25
2018-01-06T08:24:47.814Z,106.88
2018-01-06T08:25:47.731Z,101.25
2018-01-06T08:26:47.650Z,112.50
2018-01-06T08:27:47.569Z,118.13
2018-01-06T08:28:47.489Z,106.88
2018-01-06T08:29:47.412Z,106.88
2018-01-06T08:30:47.329Z,129.38
2018-01-06T08:31:47.249Z,118.13
2018-01-06T08:32:47.168Z,140.63
2018-01-06T08:33:47.087Z,123.75
2018-01-06T08:34:47.015Z,129.38
2018-01-06T08:35:46.927Z,123.75
2018-01-06T08:36:46.848Z,135.00
2018-01-06T08:37:46.765Z,146.25
2018-01-06T08:38:46.687Z,129.38
2018-01-06T08:39:46.608Z,135.00
2018-01-06T08:40:46.526Z,101.25
2018-01-06T08:41:46.447Z,101.25
2018-01-06T08:42:46.366Z,101.25
2018-01-06T08:43:46.287Z,95.63
2018-01-06T08:44:46.206Z,90.00
2018-01-06T08:45:46.127Z,95.63
2018-01-06T08:46:46.046Z,90.00
2018-01-06T08:47:45.968Z,84.38
2018-01-06T08:48:45.889Z,95.63
2018-01-06T08:49:45.805Z,95.63
2018-01-06T08:50:45.726Z,106.88
2018-01-06T08:51:45.648Z,112.50
2018-01-06T08:52:45.566Z,129.38
2018-01-06T08:53:45.486Z,146.25
2018-01-06T08:54:45.409Z,140.63
2018-01-06T08:55:45.327Z,135.00
2018-01-06T08:56:45.247Z,129.38
2018-01-06T08:57:45.166Z,123.75
2018-01-06T08:58:45.087Z,118.13
2018-01-06T08:59:45.007Z,129.38
2018-01-06T09:00:44.932Z,123.75
2018-01-06T09:01:44.846Z,106.88
2018-01-06T09:02:44.767Z,101.25
2018-01-06T09:03:44.701Z,101.25
2018-01-06T09:04:44.610Z,129.38
2018-01-06T09:05:44.527Z,123.75
2018-01-06T09:06:44.448Z,112.50
2018-01-06T09:07:44.369Z,101.25
2018-01-06T09:08:44.288Z,90.00
2018-01-06T09:09:44.208Z,84.38
2018-01-06T09:10:44.181Z,84.38
2018-01-06T09:11:44.048Z,101.25
2018-01-06T09:12:43.970Z,101.25
2018-01-06T09:13:43.888Z,112.50
2018-01-06T09:14:43.808Z,123.75
2018-01-06T09:15:43.730Z,95.63
2018-01-06T09:16:43.651Z,90.00
2018-01-06T09:17:43.571Z,123.75
2018-01-06T09:18:43.490Z,95.63
2018-01-06T09:19:43.412Z,90.00
2018-01-06T09:20:43.330Z,106.88
2018-01-06T09:21:43.251Z,101.25
2018-01-06T09:22:43.171Z,118.13
2018-01-06T09:23:43.090Z,101.25
2018-01-06T09:24:43.014Z,84.38
2018-01-06T09:25:42.932Z,106.88
2018-01-06T09:26:42.851Z,106.88
2018-01-06T09:27:42.772Z,106.88
2018-01-06T09:28:42.692Z,95.63
2018-01-06T09:29:42.612Z,112.50
2018-01-06T09:30:42.531Z,135.00
2018-01-06T09:31:42.453Z,151.88
2018-01-06T09:32:42.372Z,157.50
2018-01-06T09:33:42.292Z,129.38
2018-01-06T09:34:42.213Z,106.88
2018-01-06T09:35:42.135Z,118.13
2018-01-06T09:36:42.051Z,129.38
2018-01-06T09:37:41.974Z,135.00
2018-01-06T09:38:41.894Z,123.75
2018-01-06T09:39:41.812Z,118.13
2018-01-06T09:40:41.734Z,135.00
2018-01-06T09:41:41.653Z,140.63
2018-01-06T09:42:41.574Z,140.63
2018-01-06T09:43:41.494Z,123.75
2018-01-06T09:44:41.412Z,123.75
2018-01-06T09:45:41.335Z,106.88
2018-01-06T09:46:41.253Z,129.38
2018-01-06T09:47:41.175Z,118.13
2018-01-06T09:48:41.094Z,118.13
2018-01-06T09:49:41.013Z,118.13
2018-01-06T09:50:40.934Z,140.63
2018-01-06T09:51:40.854Z,129.38
2018-01-06T09:52:40.774Z,135.00
2018-01-06T09:53:40.694Z,129.38
2018-01-06T09:54:40.641Z,180.00
2018-01-06T09:55:40.535Z,123.75
2018-01-06T09:56:40.455Z,112.50
2018-01-06T09:57:40.373Z,123.75
2018-01-06T09:58:40.297Z,180.00
2018-01-06T09:59:40.216Z,106.88
2018-01-06T10:00:40.134Z,101.25
2018-01-06T10:01:40.053Z,90.00
2018-01-06T10:02:39.976Z,90.00
2018-01-06T10:03:39.897Z,112.50
2018-01-06T10:04:39.819Z,106.88
2018-01-06T10:05:39.738Z,101.25
2018-01-06T10:06:39.655Z,112.50
2018-01-06T10:07:39.586Z,101.25
2018-01-06T10:08:39.496Z,118.13
2018-01-06T10:09:39.416Z,157.50
2018-01-06T10:10:39.336Z,140.63
2018-01-06T10:11:39.258Z,118.13
2018-01-06T10:12:39.177Z,123.75
2018-01-06T10:13:39.095Z,151.88
2018-01-06T10:14:39.016Z,135.00
2018-01-06T10:15:38.939Z,135.00
2018-01-06T10:16:38.861Z,168.75
2018-01-06T10:17:38.776Z,185.63
2018-01-06T10:18:38.697Z,168.75
2018-01-06T10:19:38.616Z,146.25
2018-01-06T10:20:38.540Z,157.50
2018-01-06T10:21:38.457Z,123.75
2018-01-06T10:22:38.377Z,151.88
2018-01-06T10:23:38.297Z,140.63
2018-01-06T10:24:38.218Z,146.25
2018-01-06T10:25:38.138Z,163.13
2018-01-06T10:26:38.061Z,129.38
2018-01-06T10:27:37.978Z,118.13
2018-01-06T10:28:37.899Z,123.75
2018-01-06T10:29:37.818Z,135.00
2018-01-06T10:30:37.745Z,174.38
2018-01-06T10:31:37.660Z,196.88
2018-01-06T10:32:37.580Z,180.00
2018-01-06T10:33:37.503Z,174.38
2018-01-06T10:34:37.420Z,174.38
2018-01-06T10:35:37.341Z,157.50
2018-01-06T10:36:37.262Z,129.38
2018-01-06T10:37:37.180Z,118.13
2018-01-06T10:38:37.101Z,129.38
2018-01-06T10:39:37.025Z,129.38
2018-01-06T10:40:36.945Z,151.88
2018-01-06T10:41:36.861Z,180.00
2018-01-06T10:42:36.838Z,168.75
2018-01-06T10:43:36.704Z,185.63
2018-01-06T10:44:36.626Z,208.13
2018-01-06T10:45:36.546Z,151.88
2018-01-06T10:46:36.466Z,129.38
2018-01-06T10:47:36.386Z,129.38
2018-01-06T10:48:36.311Z,129.38
2018-01-06T10:49:36.226Z,123.75
2018-01-06T10:50:36.148Z,129.38
2018-01-06T10:51:36.068Z,151.88
2018-01-06T10:52:35.988Z,135.00
2018-01-06T10:53:35.907Z,151.88
2018-01-06T10:54:35.830Z,168.75
2018-01-06T10:55:35.750Z,146.25
2018-01-06T10:56:35.673Z,146.25
2018-01-06T10:57:35.590Z,135.00
2018-01-06T10:58:35.526Z,106.88
2018-01-06T10:59:35.433Z,112.50
2018-01-06T11:00:35.354Z,84.38
2018-01-06T11:01:35.273Z,112.50
2018-01-06T11:02:35.193Z,106.88
2018-01-06T11:03:35.116Z,118.13
2018-01-06T11:04:35.040Z,140.63
2018-01-06T11:05:34.958Z,90.00
2018-01-06T11:06:34.876Z,129.38
2018-01-06T11:07:34.798Z,151.88
2018-01-06T11:08:34.720Z,157.50
2018-01-06T11:09:34.637Z,123.75
2018-01-06T11:10:34.559Z,112.50
2018-01-06T11:11:34.486Z,95.63
2018-01-06T11:12:34.403Z,90.00
2018-01-06T11:13:34.324Z,78.75
2018-01-06T11:14:34.241Z,84.38
2018-01-06T11:15:34.167Z,78.75
2018-01-06T11:16:34.083Z,78.75
2018-01-06T11:17:34.005Z,73.13
2018-01-06T11:18:33.924Z,78.75
2018-01-06T11:19:33.844Z,129.38
2018-01-06T11:20:33.765Z,168.75
2018-01-06T11:21:33.685Z,213.75
2018-01-06T11:22:33.606Z,219.38
2018-01-06T11:23:33.527Z,191.25
2018-01-06T11:24:33.449Z,202.50
2018-01-06T11:25:33.367Z,253.13
2018-01-06T11:26:33.290Z,247.50
2018-01-06T11:27:33.208Z,191.25
2018-01-06T11:28:33.133Z,118.13
2018-01-06T11:29:33.049Z,112.50
2018-01-06T11:30:32.974Z,101.25
2018-01-06T11:31:32.891Z,123.75
2018-01-06T11:32:32.813Z,163.13
2018-01-06T11:33:32.732Z,180.00
2018-01-06T11:34:32.654Z,140.63
2018-01-06T11:35:32.573Z,185.63
2018-01-06T11:36:32.496Z,157.50
2018-01-06T11:37:32.414Z,180.00
2018-01-06T11:38:32.334Z,185.63
2018-01-06T11:39:32.261Z,146.25
2018-01-06T11:40:32.178Z,146.25
2018-01-06T11:41:32.099Z,129.38
2018-01-06T11:42:32.019Z,146.25
2018-01-06T11:43:31.939Z,118.13
2018-01-06T11:44:31.864Z,146.25
2018-01-06T11:45:31.779Z,140.63
2018-01-06T11:46:31.701Z,135.00
2018-01-06T11:47:31.625Z,118.13
2018-01-06T11:48:31.549Z,151.88
2018-01-06T11:49:31.464Z,146.25
2018-01-06T11:50:31.384Z,129.38
2018-01-06T11:51:31.303Z,140.63
2018-01-06T11:52:31.226Z,168.75
2018-01-06T11:53:31.145Z,174.38
2018-01-06T11:54:31.067Z,258.75
2018-01-06T11:55:30.988Z,253.13
2018-01-06T11:56:30.908Z,225.00
2018-01-06T11:57:30.831Z,253.13
2018-01-06T11:58:30.748Z,315.00
2018-01-06T11:59:30.672Z,331.88
2018-01-06T12:00:30.591Z,241.88
2018-01-06T12:01:30.514Z,180.00
2018-01-06T12:02:30.432Z,196.88
2018-01-06T12:03:30.351Z,180.00
2018-01-06T12:04:30.277Z,95.63
2018-01-06T12:05:30.196Z,135.00
2018-01-06T12:06:30.114Z,180.00
2018-01-06T12:07:30.045Z,213.75
2018-01-06T12:08:29.956Z,196.88
2018-01-06T12:09:29.877Z,191.25
2018-01-06T12:10:29.797Z,180.00
2018-01-06T12:11:29.724Z,185.63
2018-01-06T12:12:29.639Z,241.88
2018-01-06T12:13:29.563Z,281.25
2018-01-06T12:14:29.482Z,219.38
2018-01-06T12:15:29.403Z,382.50
2018-01-06T12:16:29.324Z,343.13
2018-01-06T12:17:29.245Z,309.38
2018-01-06T12:18:29.165Z,281.25
2018-01-06T12:19:29.087Z,303.75
2018-01-06T12:20:29.020Z,1552.50
2018-01-06T12:21:28.929Z,1091.25
2018-01-06T12:22:28.850Z,466.88
2018-01-06T12:23:28.770Z,562.50
2018-01-06T12:24:28.692Z,871.88
2018-01-06T12:25:28.615Z,950.63
2018-01-06T12:26:28.534Z,916.88
2018-01-06T12:27:28.458Z,871.88
2018-01-06T12:28:28.385Z,635.63
2018-01-06T12:29:28.304Z,1057.50
2018-01-06T12:30:28.224Z,1147.50
2018-01-06T12:31:28.146Z,984.38
2018-01-06T12:32:28.071Z,928.13
2018-01-06T12:33:27.993Z,1080.00
2018-01-06T12:34:27.919Z,658.13
2018-01-06T12:35:27.844Z,798.75
2018-01-06T12:36:27.767Z,945.00
2018-01-06T12:37:27.691Z,866.25
2018-01-06T12:38:27.616Z,855.00
2018-01-06T12:39:27.543Z,860.63
2018-01-06T12:40:27.466Z,956.25
2018-01-06T12:41:27.389Z,950.63
2018-01-06T12:42:27.315Z,697.50
2018-01-06T12:43:27.247Z,1181.25
2018-01-06T12:44:27.173Z,950.63
2018-01-06T12:45:27.091Z,933.75
2018-01-06T12:46:27.019Z,573.75
2018-01-06T12:47:26.946Z,753.75
2018-01-06T12:48:26.876Z,658.13
2018-01-06T12:49:26.798Z,348.75
2018-01-06T12:50:26.724Z,337.50
2018-01-06T12:51:26.666Z,309.38
2018-01-06T12:52:26.577Z,433.13
2018-01-06T12:53:26.504Z,427.50
2018-01-06T12:54:26.435Z,635.63
2018-01-06T12:55:26.356Z,450.00
2018-01-06T12:56:26.284Z,843.75
2018-01-06T12:57:26.210Z,883.13
2018-01-06T12:58:26.135Z,675.00
2018-01-06T12:59:26.061Z,714.38